CWEU

Eureka Airport

Eureka, Canada
METAR CWEU 140000Z VRB02KT 15SM -SN FEW085 BKN130 M28/M31 A2960 RMK AC1AC6 AC TR SLP028
Observed Flight Rules
Dec-14 @ 00:00 UTC (45 minutes ago) Visual Flight Rules
Wind Visibility Clouds Conditions
Variable at 2 knots 15 miles
  • Few at 8,500' AGL
  • Broken at 13,000' AGL
  • Light Snow
Temperatures Readings
Current -28°C / -18°F
Dewpoint -31°C / -24°F
Humidity 75%
Altimeter 29.6" Hg
Pressure 1002.8 hPa
Elevation 10
METAR CWEU 140000Z VRB02KT 15SM -SN FEW085 BKN130 M28/M31 A2960 RMK AC1AC6 AC TR SLP028
Observed Flight Rules
Dec-14 @ 00:00 UTC
(45 minutes ago)
VFR
Wind Visibility
Variable at 2 knots 15 miles
Clouds
  • Few at 8,500' AGL
  • Broken at 13,000' AGL
Conditions
  • Light Snow
Temperature Dewpoint
-28°C / -18°F -31°C / -24°F
Humidity Altimeter Pressure
75% 29.6" Hg 1002.8 hPa